createdAt,value
2022-08-26T00:01:44.120Z,6.68
2022-08-26T00:04:12.604Z,7.03
2022-08-26T00:06:42.492Z,7.13
2022-08-26T00:09:13.377Z,6.60
2022-08-26T00:11:43.529Z,6.85
2022-08-26T00:14:10.363Z,6.90
2022-08-26T00:16:37.270Z,7.30
2022-08-26T00:19:08.376Z,7.15
2022-08-26T00:21:35.728Z,7.00
2022-08-26T00:24:04.684Z,7.30
2022-08-26T00:26:33.719Z,7.32
2022-08-26T00:29:01.017Z,7.50
2022-08-26T00:31:27.844Z,6.88
2022-08-26T00:33:59.956Z,7.35
2022-08-26T00:36:29.596Z,7.00
2022-08-26T00:38:58.104Z,7.43
2022-08-26T00:41:24.880Z,7.40
2022-08-26T00:43:53.226Z,7.05
2022-08-26T00:46:23.852Z,7.15
2022-08-26T00:48:54.216Z,7.25
2022-08-26T00:51:30.025Z,7.05
2022-08-26T00:54:07.611Z,7.15
2022-08-26T00:56:44.216Z,6.70
2022-08-26T00:59:15.363Z,7.28
2022-08-26T01:01:46.060Z,7.43
2022-08-26T01:04:17.831Z,7.85
2022-08-26T01:06:45.480Z,6.97
2022-08-26T01:09:12.699Z,7.50
2022-08-26T01:11:40.257Z,7.60
2022-08-26T01:14:08.405Z,8.40
2022-08-26T01:16:36.870Z,7.13
2022-08-26T01:19:14.229Z,7.03
2022-08-26T01:21:48.191Z,7.53
2022-08-26T01:24:15.395Z,7.47
2022-08-26T01:26:44.761Z,8.07
2022-08-26T01:31:49.855Z,6.75
2022-08-26T01:34:32.063Z,7.60
2022-08-26T01:37:05.320Z,6.85
2022-08-26T01:39:33.387Z,6.97
2022-08-26T01:42:03.240Z,6.70
2022-08-26T01:44:36.588Z,7.05
2022-08-26T01:47:05.140Z,7.05
2022-08-26T01:49:35.891Z,6.85
2022-08-26T01:52:04.332Z,6.97
2022-08-26T01:54:32.547Z,7.10
2022-08-26T01:57:01.272Z,6.85
2022-08-26T01:59:30.472Z,7.10
2022-08-26T02:01:57.600Z,6.80
2022-08-26T02:04:48.901Z,6.90
2022-08-26T02:07:19.405Z,6.80
2022-08-26T02:09:48.486Z,6.97
2022-08-26T02:12:18.586Z,6.93
2022-08-26T02:17:21.950Z,6.82
2022-08-26T02:19:50.363Z,6.82
2022-08-26T02:22:23.950Z,6.60
2022-08-26T02:25:01.263Z,6.82
2022-08-26T02:27:32.973Z,7.22
2022-08-26T02:30:09.448Z,6.30
2022-08-26T02:32:37.187Z,6.13
2022-08-26T02:35:08.891Z,6.38
2022-08-26T02:37:36.409Z,5.80
2022-08-26T02:40:04.790Z,6.35
2022-08-26T02:42:31.567Z,6.53
2022-08-26T02:44:58.376Z,6.38
2022-08-26T02:47:25.658Z,6.45
2022-08-26T02:49:55.959Z,6.88
2022-08-26T02:52:22.865Z,6.60
2022-08-26T02:54:49.787Z,6.75
2022-08-26T02:57:18.000Z,6.68
2022-08-26T02:59:45.128Z,6.30
2022-08-26T03:02:12.439Z,6.65
2022-08-26T03:04:40.924Z,6.82
2022-08-26T03:07:25.324Z,6.72
2022-08-26T03:09:53.060Z,6.45
2022-08-26T03:12:20.448Z,6.63
2022-08-26T03:14:48.488Z,6.15
2022-08-26T03:17:16.049Z,6.30
2022-08-26T03:19:42.864Z,6.75
2022-08-26T03:22:09.667Z,6.88
2022-08-26T03:24:37.833Z,6.95
2022-08-26T03:27:07.451Z,6.20
2022-08-26T03:32:20.849Z,6.78
2022-08-26T03:34:48.028Z,6.78
2022-08-26T03:37:14.978Z,5.75
2022-08-26T03:39:41.955Z,8.13
2022-08-26T03:42:09.369Z,6.70
2022-08-26T03:44:41.986Z,6.70
2022-08-26T03:47:09.194Z,7.07
2022-08-26T03:49:36.031Z,6.50
2022-08-26T03:52:03.781Z,6.75
2022-08-26T03:54:30.790Z,6.50
2022-08-26T03:56:57.550Z,6.60
2022-08-26T03:59:25.393Z,6.88
2022-08-26T04:01:52.321Z,6.75
2022-08-26T04:04:22.891Z,6.82
2022-08-26T04:06:58.502Z,6.72
2022-08-26T04:09:26.655Z,6.18
2022-08-26T04:11:54.692Z,6.80
2022-08-26T04:14:24.418Z,6.30
2022-08-26T04:19:19.924Z,6.32
2022-08-26T04:21:49.109Z,6.15
2022-08-26T04:24:17.561Z,6.77
2022-08-26T04:26:44.902Z,6.43
2022-08-26T04:29:16.041Z,5.90
2022-08-26T04:31:43.094Z,6.15
2022-08-26T04:34:11.074Z,6.40
2022-08-26T04:36:38.645Z,5.93
2022-08-26T04:39:05.923Z,5.25
2022-08-26T04:41:33.352Z,5.65
2022-08-26T04:44:01.967Z,5.18
2022-08-26T04:46:29.364Z,5.90
2022-08-26T04:48:56.402Z,5.75
2022-08-26T04:51:28.067Z,5.85
2022-08-26T04:53:59.124Z,6.28
2022-08-26T04:56:28.409Z,6.30
2022-08-26T04:58:55.559Z,5.85
2022-08-26T05:01:23.015Z,5.72
2022-08-26T05:03:51.037Z,5.85
2022-08-26T05:06:20.068Z,5.40
2022-08-26T05:08:47.430Z,5.68
2022-08-26T05:11:14.532Z,5.65
2022-08-26T05:13:41.455Z,5.38
2022-08-26T05:16:11.885Z,5.10
2022-08-26T05:18:39.610Z,5.47
2022-08-26T05:21:07.572Z,5.93
2022-08-26T05:23:36.509Z,5.43
2022-08-26T05:26:08.171Z,5.38
2022-08-26T05:28:35.716Z,5.38
2022-08-26T05:31:16.040Z,5.90
2022-08-26T05:33:45.639Z,5.38
2022-08-26T05:36:18.272Z,5.68
2022-08-26T05:38:46.284Z,5.82
2022-08-26T05:41:20.687Z,5.40
2022-08-26T05:43:48.110Z,6.82
2022-08-26T05:46:15.737Z,5.97
2022-08-26T05:48:44.536Z,5.93
2022-08-26T05:51:12.145Z,6.00
2022-08-26T05:53:43.967Z,6.20
2022-08-26T05:56:27.850Z,6.43
2022-08-26T05:58:58.491Z,5.93
2022-08-26T06:01:27.568Z,6.57
2022-08-26T06:04:02.675Z,6.18
2022-08-26T06:06:33.814Z,7.38
2022-08-26T06:09:03.730Z,6.22
2022-08-26T06:11:32.407Z,6.65
2022-08-26T06:14:03.827Z,7.03
2022-08-26T06:16:32.252Z,7.47
2022-08-26T06:18:59.017Z,7.20
2022-08-26T06:21:30.128Z,6.75
2022-08-26T06:24:19.010Z,6.95
2022-08-26T06:26:55.361Z,6.80
2022-08-26T06:29:24.911Z,6.38
2022-08-26T06:34:19.565Z,7.15
2022-08-26T06:36:47.494Z,6.30
2022-08-26T06:39:16.795Z,6.63
2022-08-26T06:41:45.109Z,6.45
2022-08-26T06:46:42.194Z,6.38
2022-08-26T06:49:12.459Z,6.05
2022-08-26T06:51:40.351Z,6.32
2022-08-26T06:54:08.792Z,5.65
2022-08-26T06:56:40.835Z,5.72
2022-08-26T06:59:08.316Z,6.20
2022-08-26T07:01:38.927Z,5.78
2022-08-26T07:04:10.904Z,5.28
2022-08-26T07:06:43.095Z,5.07
2022-08-26T07:09:10.844Z,6.00
2022-08-26T07:11:39.170Z,5.35
2022-08-26T07:14:06.682Z,5.68
2022-08-26T07:16:33.836Z,5.13
2022-08-26T07:19:10.611Z,4.95
2022-08-26T07:21:41.658Z,4.78
2022-08-26T07:24:11.003Z,5.07
2022-08-26T07:26:42.842Z,5.00
2022-08-26T07:29:12.626Z,5.43
2022-08-26T07:31:42.813Z,5.20
2022-08-26T07:34:10.901Z,4.95
2022-08-26T07:36:37.999Z,5.18
2022-08-26T07:39:05.796Z,4.80
2022-08-26T07:41:33.500Z,5.13
2022-08-26T07:44:00.953Z,5.47
2022-08-26T07:46:30.421Z,5.50
2022-08-26T07:48:58.513Z,5.00
2022-08-26T07:51:26.970Z,4.85
2022-08-26T07:53:54.785Z,5.40
2022-08-26T07:56:23.447Z,5.43
2022-08-26T07:58:52.791Z,5.55
2022-08-26T08:03:53.809Z,5.18
2022-08-26T08:06:22.926Z,4.60
2022-08-26T08:08:56.400Z,4.50
2022-08-26T08:11:24.105Z,4.95
2022-08-26T08:13:56.102Z,4.60
2022-08-26T08:16:25.170Z,5.47
2022-08-26T08:18:53.741Z,4.70
2022-08-26T08:21:21.628Z,5.13
2022-08-26T08:23:51.873Z,5.85
2022-08-26T08:26:18.696Z,5.57
2022-08-26T08:28:48.022Z,5.38
2022-08-26T08:31:45.053Z,5.18
2022-08-26T08:34:09.330Z,5.57
2022-08-26T08:36:36.458Z,4.95
2022-08-26T08:39:06.487Z,4.60
2022-08-26T08:42:04.991Z,5.18
2022-08-26T08:44:31.892Z,4.68
2022-08-26T08:47:11.465Z,5.07
2022-08-26T08:49:38.205Z,5.05
2022-08-26T08:52:12.911Z,5.03
2022-08-26T08:54:39.727Z,5.00
2022-08-26T08:57:17.532Z,4.57
2022-08-26T08:59:58.351Z,4.65
2022-08-26T09:02:43.181Z,4.88
2022-08-26T09:05:40.246Z,4.47
2022-08-26T09:08:21.719Z,5.10
2022-08-26T09:10:56.460Z,4.68
2022-08-26T09:13:27.394Z,4.93
2022-08-26T09:16:10.018Z,4.82
2022-08-26T09:19:14.616Z,5.10
2022-08-26T09:21:46.195Z,4.90
2022-08-26T09:24:13.796Z,5.20
2022-08-26T09:26:41.045Z,4.60
2022-08-26T09:29:24.998Z,4.90
2022-08-26T09:32:13.081Z,5.32
2022-08-26T09:34:58.484Z,4.50
2022-08-26T09:37:42.275Z,4.70
2022-08-26T09:40:29.336Z,4.68
2022-08-26T09:43:22.513Z,4.43
2022-08-26T09:45:59.518Z,4.35
2022-08-26T09:48:26.785Z,4.68
2022-08-26T09:50:59.931Z,4.85
2022-08-26T09:53:33.892Z,4.40
2022-08-26T09:56:39.298Z,4.20
2022-08-26T09:59:11.166Z,5.05
2022-08-26T10:01:43.365Z,4.90
2022-08-26T10:04:14.718Z,5.05
2022-08-26T10:07:03.932Z,4.63
2022-08-26T10:09:35.621Z,4.80
2022-08-26T10:12:17.444Z,4.43
2022-08-26T10:14:52.147Z,5.40
2022-08-26T10:17:32.345Z,4.93
2022-08-26T10:20:23.724Z,4.28
2022-08-26T10:22:57.315Z,5.00
2022-08-26T10:25:29.333Z,4.18
2022-08-26T10:28:20.872Z,4.57
2022-08-26T10:30:56.290Z,4.40
2022-08-26T10:33:24.009Z,4.22
2022-08-26T10:35:57.604Z,4.95
2022-08-26T10:38:38.276Z,5.13
2022-08-26T10:41:09.709Z,4.57
2022-08-26T10:43:45.260Z,4.35
2022-08-26T10:46:27.215Z,4.78
2022-08-26T10:49:06.855Z,3.72
2022-08-26T10:51:42.261Z,5.25
2022-08-26T10:54:15.364Z,4.30
2022-08-26T10:56:53.394Z,4.47
2022-08-26T11:02:50.433Z,4.43
2022-08-26T11:05:20.226Z,4.60
2022-08-26T11:07:52.655Z,4.32
2022-08-26T11:10:21.581Z,4.50
2022-08-26T11:13:06.993Z,5.15
2022-08-26T11:15:36.941Z,3.97
2022-08-26T11:18:36.674Z,4.03
2022-08-26T11:21:03.477Z,4.22
2022-08-26T11:23:50.796Z,4.25
2022-08-26T11:26:30.080Z,4.15
2022-08-26T11:29:05.063Z,4.60
2022-08-26T11:31:40.208Z,4.05
2022-08-26T11:34:13.805Z,3.67
2022-08-26T11:36:46.571Z,4.53
2022-08-26T11:39:28.892Z,3.70
2022-08-26T11:42:00.101Z,4.07
2022-08-26T11:44:37.349Z,3.97
2022-08-26T11:47:05.744Z,3.88
2022-08-26T11:49:38.365Z,4.05
2022-08-26T11:52:18.563Z,3.22
2022-08-26T11:55:07.905Z,4.10
2022-08-26T11:57:41.364Z,4.40
2022-08-26T12:00:13.583Z,4.00
2022-08-26T12:02:41.439Z,3.80
2022-08-26T12:05:08.657Z,4.10
2022-08-26T12:07:35.713Z,3.75
2022-08-26T12:10:06.479Z,3.83
2022-08-26T12:12:37.452Z,4.13
2022-08-26T12:15:11.916Z,4.00
2022-08-26T12:17:40.696Z,3.85
2022-08-26T12:22:48.133Z,3.60
2022-08-26T12:25:23.747Z,4.18
2022-08-26T12:27:53.714Z,4.10
2022-08-26T12:30:26.151Z,3.90
2022-08-26T12:33:19.369Z,4.45
2022-08-26T12:35:52.863Z,4.05
2022-08-26T12:38:22.523Z,4.25
2022-08-26T12:40:50.434Z,4.00
2022-08-26T12:43:39.322Z,4.20
2022-08-26T12:46:07.896Z,4.00
2022-08-26T12:48:38.628Z,3.97
2022-08-26T12:51:35.395Z,3.50
2022-08-26T12:54:06.726Z,4.68
2022-08-26T12:56:41.216Z,4.25
2022-08-26T12:59:23.275Z,4.10
2022-08-26T13:01:50.357Z,3.95
2022-08-26T13:04:38.248Z,3.88
2022-08-26T13:07:24.461Z,4.05
2022-08-26T13:09:54.489Z,3.72
2022-08-26T13:12:30.641Z,3.95
2022-08-26T13:14:58.984Z,3.90
2022-08-26T13:17:27.528Z,3.90
2022-08-26T13:19:54.488Z,4.55
2022-08-26T13:22:26.932Z,3.92
2022-08-26T13:24:56.550Z,3.80
2022-08-26T13:27:27.421Z,4.88
2022-08-26T13:29:57.225Z,4.05
2022-08-26T13:32:27.197Z,3.55
2022-08-26T13:34:56.443Z,3.67
2022-08-26T13:37:34.720Z,4.00
2022-08-26T13:40:06.565Z,4.18
2022-08-26T13:42:34.392Z,4.15
2022-08-26T13:45:01.563Z,3.93
2022-08-26T13:47:28.786Z,4.18
2022-08-26T13:49:56.500Z,3.90
2022-08-26T13:52:30.317Z,3.70
2022-08-26T13:54:58.356Z,3.80
2022-08-26T13:57:27.953Z,3.97
2022-08-26T13:59:56.564Z,4.20
2022-08-26T14:02:24.462Z,4.10
2022-08-26T14:04:51.867Z,3.90
2022-08-26T14:07:18.660Z,3.92
2022-08-26T14:09:45.508Z,4.10
2022-08-26T14:12:12.229Z,3.30
2022-08-26T14:14:38.951Z,3.72
2022-08-26T14:17:06.911Z,4.07
2022-08-26T14:19:33.784Z,3.63
2022-08-26T14:22:01.184Z,3.92
2022-08-26T14:24:28.953Z,3.63
2022-08-26T14:26:55.983Z,4.13
2022-08-26T14:29:22.745Z,3.70
2022-08-26T14:31:49.617Z,4.63
2022-08-26T14:34:16.481Z,4.25
2022-08-26T14:36:43.623Z,3.90
2022-08-26T14:39:13.032Z,4.05
2022-08-26T14:41:54.971Z,3.78
2022-08-26T14:44:28.303Z,3.63
2022-08-26T14:46:55.502Z,4.20
2022-08-26T14:49:24.507Z,4.00
2022-08-26T14:54:19.028Z,4.22
2022-08-26T14:57:01.324Z,4.18
2022-08-26T14:59:37.204Z,3.72
2022-08-26T15:02:06.510Z,4.07
2022-08-26T15:04:33.943Z,4.05
2022-08-26T15:07:01.488Z,3.80
2022-08-26T15:09:29.831Z,4.32
2022-08-26T15:11:57.024Z,3.88
2022-08-26T15:14:23.956Z,4.22
2022-08-26T15:16:54.027Z,4.18
2022-08-26T15:19:21.084Z,3.83
2022-08-26T15:21:47.920Z,3.65
2022-08-26T15:24:16.871Z,4.05
2022-08-26T15:29:10.866Z,4.60
2022-08-26T15:31:37.793Z,3.78
2022-08-26T15:34:08.515Z,4.30
2022-08-26T15:36:37.900Z,4.70
2022-08-26T15:39:06.859Z,3.55
2022-08-26T15:44:03.658Z,3.65
2022-08-26T15:46:31.547Z,4.28
2022-08-26T15:48:58.483Z,4.50
2022-08-26T15:51:30.173Z,4.70
2022-08-26T15:53:57.588Z,4.75
2022-08-26T15:56:26.248Z,4.70
2022-08-26T15:58:56.041Z,4.55
2022-08-26T16:01:27.329Z,4.75
2022-08-26T16:03:56.009Z,4.38
2022-08-26T16:06:28.388Z,4.95
2022-08-26T16:08:56.453Z,4.45
2022-08-26T16:11:24.644Z,4.88
2022-08-26T16:13:51.720Z,4.53
2022-08-26T16:16:18.644Z,4.40
2022-08-26T16:18:45.688Z,4.68
2022-08-26T16:21:23.401Z,4.95
2022-08-26T16:23:51.139Z,4.82
2022-08-26T16:26:20.766Z,4.65
2022-08-26T16:28:47.921Z,4.10
2022-08-26T16:31:15.674Z,3.85
2022-08-26T16:33:42.615Z,4.25
2022-08-26T16:36:10.858Z,4.40
2022-08-26T16:38:39.097Z,4.30
2022-08-26T16:41:06.796Z,4.53
2022-08-26T16:43:36.296Z,4.38
2022-08-26T16:46:06.063Z,5.00
2022-08-26T16:48:33.448Z,4.97
2022-08-26T16:51:00.225Z,5.25
2022-08-26T16:53:26.940Z,4.53
2022-08-26T16:55:53.693Z,5.00
2022-08-26T16:58:22.256Z,5.43
2022-08-26T17:00:49.837Z,4.65
2022-08-26T17:03:18.251Z,4.57
2022-08-26T17:05:44.963Z,4.28
2022-08-26T17:08:13.848Z,4.43
2022-08-26T17:13:09.854Z,5.35
2022-08-26T17:15:36.744Z,5.25
2022-08-26T17:18:03.733Z,12.38
2022-08-26T17:20:31.110Z,16.35
2022-08-26T17:23:00.092Z,7.75
2022-08-26T17:25:30.114Z,4.82
2022-08-26T17:30:29.717Z,6.22
2022-08-26T17:32:58.047Z,5.93
2022-08-26T17:35:26.599Z,5.05
2022-08-26T17:37:55.632Z,5.53
2022-08-26T17:40:25.615Z,5.07
2022-08-26T17:42:52.868Z,5.07
2022-08-26T17:47:48.239Z,4.85
2022-08-26T17:50:17.013Z,5.63
2022-08-26T17:52:44.920Z,5.00
2022-08-26T17:55:13.901Z,5.38
2022-08-26T17:57:44.041Z,6.15
2022-08-26T18:00:22.690Z,5.82
2022-08-26T18:02:49.404Z,6.28
2022-08-26T18:05:17.548Z,6.05
2022-08-26T18:07:45.247Z,6.75
2022-08-26T18:10:15.583Z,6.43
2022-08-26T18:12:43.208Z,6.40
2022-08-26T18:15:11.633Z,7.05
2022-08-26T18:17:41.808Z,6.07
2022-08-26T18:20:15.935Z,6.40
2022-08-26T18:22:43.682Z,6.38
2022-08-26T18:25:11.564Z,6.55
2022-08-26T18:27:38.868Z,6.15
2022-08-26T18:30:11.344Z,5.72
2022-08-26T18:32:40.459Z,5.95
2022-08-26T18:35:08.556Z,6.30
2022-08-26T18:37:35.667Z,6.22
2022-08-26T18:40:02.707Z,5.80
2022-08-26T18:42:31.028Z,6.90
2022-08-26T18:44:57.797Z,7.97
2022-08-26T18:47:24.567Z,7.47
2022-08-26T18:49:51.515Z,6.80
2022-08-26T18:52:18.327Z,7.65
2022-08-26T18:54:45.076Z,7.38
2022-08-26T18:57:12.258Z,7.95
2022-08-26T18:59:39.146Z,8.45
2022-08-26T19:02:06.058Z,8.43
2022-08-26T19:04:32.929Z,8.63
2022-08-26T19:07:00.142Z,7.78
2022-08-26T19:09:27.282Z,8.27
2022-08-26T19:14:36.040Z,9.45
2022-08-26T19:17:05.984Z,8.60
2022-08-26T19:19:33.332Z,9.20
2022-08-26T19:22:01.240Z,9.10
2022-08-26T19:24:28.594Z,8.73
2022-08-26T19:26:58.698Z,9.90
2022-08-26T19:29:30.630Z,8.95
2022-08-26T19:31:57.689Z,9.50
2022-08-26T19:34:25.348Z,9.30
2022-08-26T19:36:54.438Z,8.57
2022-08-26T19:39:21.722Z,10.05
2022-08-26T19:41:49.237Z,8.93
2022-08-26T19:44:38.334Z,8.70
2022-08-26T19:47:07.282Z,10.23
2022-08-26T19:49:34.901Z,8.27
2022-08-26T19:52:03.202Z,8.88
2022-08-26T19:54:30.308Z,8.80
2022-08-26T19:56:57.468Z,7.63
2022-08-26T19:59:24.459Z,8.45
2022-08-26T20:02:00.558Z,8.52
2022-08-26T20:04:28.183Z,7.88
2022-08-26T20:06:57.724Z,8.52
2022-08-26T20:09:28.036Z,8.10
2022-08-26T20:11:56.636Z,7.38
2022-08-26T20:14:24.644Z,7.28
2022-08-26T20:16:51.463Z,7.88
2022-08-26T20:19:37.680Z,6.93
2022-08-26T20:22:04.996Z,6.45
2022-08-26T20:24:32.608Z,6.70
2022-08-26T20:26:59.889Z,7.78
2022-08-26T20:29:28.300Z,7.25
2022-08-26T20:31:55.101Z,6.78
2022-08-26T20:34:22.136Z,6.53
2022-08-26T20:36:50.946Z,7.13
2022-08-26T20:39:20.974Z,6.25
2022-08-26T20:41:48.443Z,6.45
2022-08-26T20:44:17.639Z,5.70
2022-08-26T20:46:44.894Z,6.18
2022-08-26T20:49:11.724Z,6.55
2022-08-26T20:51:38.543Z,6.80
2022-08-26T20:54:08.170Z,5.30
2022-08-26T20:59:02.670Z,5.05
2022-08-26T21:01:34.629Z,5.97
2022-08-26T21:04:07.630Z,5.72
2022-08-26T21:06:35.644Z,5.63
2022-08-26T21:09:04.461Z,5.65
2022-08-26T21:11:31.411Z,6.05
2022-08-26T21:14:06.826Z,5.97
2022-08-26T21:16:43.943Z,5.60
2022-08-26T21:19:13.135Z,5.82
2022-08-26T21:21:40.896Z,5.68
2022-08-26T21:24:08.263Z,6.30
2022-08-26T21:26:35.260Z,5.68
2022-08-26T21:29:02.989Z,5.72
2022-08-26T21:31:32.041Z,5.93
2022-08-26T21:33:59.573Z,5.53
2022-08-26T21:36:26.671Z,6.20
2022-08-26T21:38:59.119Z,5.57
2022-08-26T21:41:27.024Z,5.85
2022-08-26T21:43:58.044Z,6.47
2022-08-26T21:46:26.480Z,6.32
2022-08-26T21:49:00.265Z,5.55
2022-08-26T21:51:29.552Z,5.82
2022-08-26T21:53:57.786Z,5.88
2022-08-26T21:56:27.517Z,5.80
2022-08-26T21:58:56.372Z,6.30
2022-08-26T22:01:25.825Z,5.47
2022-08-26T22:06:23.776Z,5.40
2022-08-26T22:08:51.520Z,5.07
2022-08-26T22:11:18.828Z,5.05
2022-08-26T22:13:47.390Z,5.75
2022-08-26T22:16:14.554Z,5.45
2022-08-26T22:18:45.741Z,5.15
2022-08-26T22:21:16.752Z,5.40
2022-08-26T22:23:44.476Z,5.07
2022-08-26T22:26:13.921Z,4.95
2022-08-26T22:28:40.689Z,5.30
2022-08-26T22:31:10.177Z,4.90
2022-08-26T22:33:39.051Z,4.88
2022-08-26T22:36:06.428Z,4.68
2022-08-26T22:38:33.176Z,4.97
2022-08-26T22:41:00.463Z,4.90
2022-08-26T22:43:28.991Z,5.32
2022-08-26T22:45:56.556Z,5.10
2022-08-26T22:48:25.177Z,4.57
2022-08-26T22:51:00.070Z,4.75
2022-08-26T22:53:27.125Z,5.22
2022-08-26T22:55:54.453Z,4.80
2022-08-26T22:58:25.408Z,4.75
2022-08-26T23:00:59.326Z,4.32
2022-08-26T23:03:27.272Z,5.72
2022-08-26T23:05:55.562Z,5.00
2022-08-26T23:08:23.717Z,5.40
2022-08-26T23:10:51.904Z,5.22
2022-08-26T23:13:18.975Z,4.70
2022-08-26T23:15:46.297Z,5.15
2022-08-26T23:18:14.467Z,5.30
2022-08-26T23:20:42.046Z,4.88
2022-08-26T23:23:09.501Z,5.40
2022-08-26T23:25:36.403Z,4.90
2022-08-26T23:28:03.928Z,5.05
2022-08-26T23:30:32.551Z,4.82
2022-08-26T23:32:59.740Z,4.78
2022-08-26T23:35:27.377Z,5.70
2022-08-26T23:37:54.446Z,4.35
2022-08-26T23:40:27.104Z,5.30
2022-08-26T23:42:55.969Z,5.00
2022-08-26T23:45:23.643Z,5.07
2022-08-26T23:47:50.889Z,4.70
2022-08-26T23:50:19.730Z,5.20
2022-08-26T23:53:05.785Z,5.60
2022-08-26T23:55:37.595Z,5.47
2022-08-26T23:58:05.471Z,5.18
